createdAt,value
2022-10-19T00:01:01.506Z,0
2022-10-19T00:02:15.797Z,0
2022-10-19T00:03:30.209Z,0
2022-10-19T00:04:44.523Z,0
2022-10-19T00:05:58.811Z,0
2022-10-19T00:07:13.090Z,0
2022-10-19T00:08:27.488Z,0
2022-10-19T00:09:41.821Z,0
2022-10-19T00:10:56.090Z,0
2022-10-19T00:13:24.791Z,0
2022-10-19T00:14:39.111Z,0
2022-10-19T00:15:53.394Z,0
2022-10-19T00:17:07.676Z,0
2022-10-19T00:18:22.080Z,0
2022-10-19T00:19:36.396Z,0
2022-10-19T00:20:50.673Z,0
2022-10-19T00:22:05.015Z,0
2022-10-19T00:23:19.428Z,0
2022-10-19T00:24:33.766Z,0
2022-10-19T00:25:47.113Z,0
2022-10-19T00:27:01.390Z,0
2022-10-19T00:28:15.812Z,0
2022-10-19T00:29:30.135Z,0
2022-10-19T00:30:44.413Z,0
2022-10-19T00:31:58.683Z,0
2022-10-19T00:33:13.086Z,0
2022-10-19T00:34:27.426Z,0
2022-10-19T00:35:41.701Z,0
2022-10-19T00:36:55.981Z,0
2022-10-19T00:38:10.378Z,0
2022-10-19T00:39:24.715Z,0
2022-10-19T00:40:38.990Z,0
2022-10-19T00:41:53.265Z,0
2022-10-19T00:43:07.671Z,0
2022-10-19T00:44:22.007Z,0
2022-10-19T00:45:36.274Z,0
2022-10-19T00:46:50.570Z,0
2022-10-19T00:48:04.968Z,0
2022-10-19T00:49:19.306Z,0
2022-10-19T00:50:33.586Z,0
2022-10-19T00:51:47.862Z,0
2022-10-19T00:53:02.259Z,0
2022-10-19T00:54:16.583Z,0
2022-10-19T00:55:30.866Z,0
2022-10-19T00:56:45.204Z,0
2022-10-19T00:57:59.000Z,0
2022-10-19T00:59:13.944Z,0
2022-10-19T01:00:27.303Z,0
2022-10-19T01:01:41.588Z,0
2022-10-19T01:02:55.983Z,0
2022-10-19T01:04:10.320Z,0
2022-10-19T01:05:24.584Z,0
2022-10-19T01:06:38.874Z,0
2022-10-19T01:07:53.283Z,0
2022-10-19T01:09:07.595Z,0
2022-10-19T01:10:21.892Z,0
2022-10-19T01:11:36.171Z,0
2022-10-19T01:12:50.566Z,0
2022-10-19T01:14:04.911Z,0
2022-10-19T01:15:19.186Z,0
2022-10-19T01:16:33.460Z,0
2022-10-19T01:17:47.883Z,0
2022-10-19T01:19:02.179Z,0
2022-10-19T01:20:16.464Z,0
2022-10-19T01:21:30.748Z,0
2022-10-19T01:22:45.166Z,0
2022-10-19T01:23:59.490Z,0
2022-10-19T01:25:13.768Z,0
2022-10-19T01:26:28.034Z,0
2022-10-19T01:27:42.440Z,0
2022-10-19T01:28:56.782Z,0
2022-10-19T01:30:11.054Z,0
2022-10-19T01:31:25.392Z,0
2022-10-19T01:32:39.800Z,0
2022-10-19T01:33:54.132Z,0
2022-10-19T01:35:07.495Z,0
2022-10-19T01:36:21.767Z,0
2022-10-19T01:37:36.170Z,0
2022-10-19T01:38:50.507Z,0
2022-10-19T01:40:04.908Z,0
2022-10-19T01:41:19.226Z,0
2022-10-19T01:42:33.498Z,0
2022-10-19T01:43:47.904Z,0
2022-10-19T01:46:16.507Z,0
2022-10-19T01:47:30.808Z,0
2022-10-19T01:48:45.205Z,0
2022-10-19T01:49:59.527Z,0
2022-10-19T01:51:13.819Z,0
2022-10-19T01:52:28.099Z,0
2022-10-19T01:53:42.489Z,0
2022-10-19T01:54:56.819Z,0
2022-10-19T01:56:11.109Z,0
2022-10-19T01:57:25.383Z,0
2022-10-19T01:58:39.784Z,0
2022-10-19T01:59:54.108Z,0
2022-10-19T02:01:08.394Z,0
2022-10-19T02:02:22.669Z,0
2022-10-19T02:03:37.073Z,0
2022-10-19T02:04:51.413Z,0
2022-10-19T02:06:05.691Z,0
2022-10-19T02:07:19.966Z,0
2022-10-19T02:08:34.379Z,0
2022-10-19T02:09:48.703Z,0
2022-10-19T02:12:17.261Z,0
2022-10-19T02:13:31.656Z,0
2022-10-19T02:14:45.994Z,0
2022-10-19T02:16:00.279Z,0
2022-10-19T02:17:14.543Z,0
2022-10-19T02:18:28.964Z,0
2022-10-19T02:19:43.287Z,0
2022-10-19T02:20:57.571Z,0
2022-10-19T02:22:11.834Z,0
2022-10-19T02:23:26.258Z,0
2022-10-19T02:24:40.581Z,0
2022-10-19T02:25:54.912Z,0
2022-10-19T02:27:09.247Z,0
2022-10-19T02:28:23.665Z,0
2022-10-19T02:29:37.998Z,0
2022-10-19T02:30:51.352Z,0
2022-10-19T02:32:05.633Z,0
2022-10-19T02:33:20.034Z,0
2022-10-19T02:34:34.365Z,0
2022-10-19T02:35:48.651Z,0
2022-10-19T02:37:02.917Z,0
2022-10-19T02:38:17.328Z,0
2022-10-19T02:40:45.934Z,0
2022-10-19T02:42:00.217Z,0
2022-10-19T02:43:14.628Z,0
2022-10-19T02:44:28.951Z,0
2022-10-19T02:45:43.220Z,0
2022-10-19T02:46:57.510Z,0
2022-10-19T02:48:11.907Z,0
2022-10-19T02:49:26.228Z,0
2022-10-19T02:50:40.515Z,0
2022-10-19T02:51:54.802Z,0
2022-10-19T02:53:09.198Z,0
2022-10-19T02:54:23.532Z,0
2022-10-19T02:55:37.814Z,0
2022-10-19T02:56:52.094Z,0
2022-10-19T02:58:06.503Z,0
2022-10-19T02:59:20.828Z,0
2022-10-19T03:00:35.097Z,0
2022-10-19T03:01:49.442Z,0
2022-10-19T03:03:03.860Z,0
2022-10-19T03:04:18.183Z,0
2022-10-19T03:05:31.545Z,0
2022-10-19T03:06:45.822Z,0
2022-10-19T03:08:00.223Z,0
2022-10-19T03:09:14.554Z,0
2022-10-19T03:10:28.823Z,0
2022-10-19T03:11:43.109Z,0
2022-10-19T03:12:57.515Z,0
2022-10-19T03:15:26.115Z,0
2022-10-19T03:16:40.409Z,0
2022-10-19T03:17:54.808Z,0
2022-10-19T03:19:09.134Z,0
2022-10-19T03:20:23.424Z,0
2022-10-19T03:21:37.703Z,0
2022-10-19T03:22:52.096Z,0
2022-10-19T03:24:06.435Z,0
2022-10-19T03:25:20.698Z,0
2022-10-19T03:26:34.994Z,0
2022-10-19T03:27:49.388Z,0
2022-10-19T03:29:03.714Z,0
2022-10-19T03:30:17.992Z,0
2022-10-19T03:31:32.290Z,0
2022-10-19T03:32:46.692Z,0
2022-10-19T03:34:01.007Z,0
2022-10-19T03:35:15.294Z,0
2022-10-19T03:36:29.625Z,0
2022-10-19T03:37:44.030Z,0
2022-10-19T03:38:58.370Z,0
2022-10-19T03:40:12.857Z,0
2022-10-19T03:41:26.233Z,0
2022-10-19T03:42:40.652Z,0
2022-10-19T03:43:54.983Z,0
2022-10-19T03:45:08.333Z,0
2022-10-19T03:46:22.613Z,0
2022-10-19T03:47:37.031Z,0
2022-10-19T03:48:51.357Z,0
2022-10-19T03:50:05.629Z,0
2022-10-19T03:51:19.909Z,0
2022-10-19T03:52:34.309Z,0
2022-10-19T03:53:48.649Z,0
2022-10-19T03:55:02.914Z,0
2022-10-19T03:56:17.209Z,0
2022-10-19T03:57:31.613Z,0
2022-10-19T03:58:45.932Z,0
2022-10-19T04:00:00.212Z,0
2022-10-19T04:01:14.504Z,0
2022-10-19T04:02:28.906Z,0
2022-10-19T04:03:43.225Z,0
2022-10-19T04:04:57.513Z,0
2022-10-19T04:06:11.794Z,0
2022-10-19T04:07:26.185Z,0
2022-10-19T04:08:40.519Z,0
2022-10-19T04:09:54.796Z,0
2022-10-19T04:11:09.089Z,0
2022-10-19T04:12:23.491Z,0
2022-10-19T04:13:37.814Z,0
2022-10-19T04:14:52.091Z,0
2022-10-19T04:16:06.437Z,0
2022-10-19T04:17:20.842Z,0
2022-10-19T04:18:35.174Z,0
2022-10-19T04:19:48.557Z,0
2022-10-19T04:21:02.891Z,0
2022-10-19T04:22:17.300Z,0
2022-10-19T04:23:31.653Z,0
2022-10-19T04:24:44.993Z,0
2022-10-19T04:25:59.263Z,0
2022-10-19T04:27:13.674Z,0
2022-10-19T04:28:28.001Z,0
2022-10-19T04:29:42.285Z,0
2022-10-19T04:30:56.561Z,0
2022-10-19T04:32:10.979Z,0
2022-10-19T04:33:25.301Z,0
2022-10-19T04:34:39.575Z,0
2022-10-19T04:35:53.852Z,0
2022-10-19T04:37:08.259Z,0
2022-10-19T04:38:22.596Z,0
2022-10-19T04:39:36.878Z,0
2022-10-19T04:40:51.141Z,0
2022-10-19T04:42:05.566Z,0
2022-10-19T04:43:19.884Z,0
2022-10-19T04:44:34.161Z,0
2022-10-19T04:45:48.404Z,1
2022-10-19T04:47:02.757Z,0
2022-10-19T04:48:17.085Z,0
2022-10-19T04:49:31.356Z,0
2022-10-19T04:50:45.638Z,0
2022-10-19T04:52:00.040Z,0
2022-10-19T04:53:14.366Z,0
2022-10-19T04:54:28.654Z,0
2022-10-19T04:55:42.991Z,0
2022-10-19T04:56:57.397Z,0
2022-10-19T04:58:11.734Z,0
2022-10-19T04:59:25.085Z,0
2022-10-19T05:00:39.354Z,0
2022-10-19T05:01:53.765Z,0
2022-10-19T05:03:08.095Z,0
2022-10-19T05:04:22.383Z,0
2022-10-19T05:05:36.653Z,0
2022-10-19T05:06:51.067Z,0
2022-10-19T05:08:05.382Z,0
2022-10-19T05:09:19.661Z,0
2022-10-19T05:10:33.952Z,0
2022-10-19T05:11:48.360Z,0
2022-10-19T05:13:02.689Z,0
2022-10-19T05:14:16.921Z,1
2022-10-19T05:15:31.136Z,1
2022-10-19T05:16:45.435Z,1
2022-10-19T05:17:59.693Z,1
2022-10-19T05:19:13.903Z,1
2022-10-19T05:20:28.185Z,0
2022-10-19T05:21:42.464Z,0
2022-10-19T05:22:56.871Z,0
2022-10-19T05:24:11.214Z,0
2022-10-19T05:25:25.424Z,2
2022-10-19T05:26:39.713Z,0
2022-10-19T05:27:53.946Z,1
2022-10-19T05:29:08.303Z,0
2022-10-19T05:30:22.617Z,1
2022-10-19T05:31:35.959Z,1
2022-10-19T05:32:50.230Z,1
2022-10-19T05:34:04.539Z,2
2022-10-19T05:35:18.813Z,2
2022-10-19T05:36:32.126Z,2
2022-10-19T05:37:46.348Z,3
2022-10-19T05:39:00.649Z,4
2022-10-19T05:40:14.885Z,6
2022-10-19T05:41:29.121Z,8
2022-10-19T05:42:43.332Z,9
2022-10-19T05:43:57.559Z,12
2022-10-19T05:45:11.860Z,15
2022-10-19T05:46:26.111Z,18
2022-10-19T05:47:40.323Z,21
2022-10-19T05:48:54.558Z,23
2022-10-19T05:50:08.778Z,26
2022-10-19T05:51:23.081Z,30
2022-10-19T05:52:37.336Z,32
2022-10-19T05:53:51.553Z,35
2022-10-19T05:55:05.772Z,43
2022-10-19T05:56:20.010Z,53
2022-10-19T05:57:34.305Z,70
2022-10-19T05:58:48.552Z,86
2022-10-19T06:00:02.783Z,101
2022-10-19T06:01:17.002Z,116
2022-10-19T06:02:31.223Z,124
2022-10-19T06:03:45.518Z,136
2022-10-19T06:04:59.770Z,158
2022-10-19T06:06:13.995Z,173
2022-10-19T06:07:28.287Z,177
2022-10-19T06:08:41.605Z,190
2022-10-19T06:09:55.907Z,201
2022-10-19T06:11:09.201Z,202
2022-10-19T06:12:23.412Z,191
2022-10-19T06:13:37.711Z,223
2022-10-19T06:14:51.960Z,247
2022-10-19T06:16:06.196Z,251
2022-10-19T06:17:20.423Z,263
2022-10-19T06:18:34.636Z,265
2022-10-19T06:19:48.951Z,293
2022-10-19T06:21:03.188Z,289
2022-10-19T06:23:31.635Z,362
2022-10-19T06:24:45.855Z,385
2022-10-19T06:26:00.152Z,408
2022-10-19T06:27:14.394Z,441
2022-10-19T06:28:28.628Z,473
2022-10-19T06:29:42.846Z,500
2022-10-19T06:30:57.074Z,501
2022-10-19T06:32:11.376Z,544
2022-10-19T06:33:25.614Z,536
2022-10-19T06:34:39.000Z,556
2022-10-19T06:35:54.078Z,601
2022-10-19T06:37:08.303Z,583
2022-10-19T06:38:22.595Z,625
2022-10-19T06:39:36.836Z,704
2022-10-19T06:40:51.074Z,699
2022-10-19T06:42:05.356Z,697
2022-10-19T06:43:18.694Z,711
2022-10-19T06:44:32.976Z,736
2022-10-19T06:45:46.277Z,774
2022-10-19T06:47:00.510Z,803
2022-10-19T06:48:14.796Z,782
2022-10-19T06:49:29.047Z,777
2022-10-19T06:50:43.274Z,813
2022-10-19T06:51:57.507Z,867
2022-10-19T06:53:11.728Z,843
2022-10-19T06:54:26.016Z,957
2022-10-19T06:55:40.265Z,979
2022-10-19T06:56:54.498Z,1004
2022-10-19T06:58:08.710Z,1046
2022-10-19T06:59:22.953Z,1056
2022-10-19T07:00:37.237Z,983
2022-10-19T07:01:51.495Z,986
2022-10-19T07:03:05.723Z,947
2022-10-19T07:04:19.931Z,907
2022-10-19T07:05:34.172Z,895
2022-10-19T07:06:48.467Z,1087
2022-10-19T07:08:02.714Z,1137
2022-10-19T07:09:16.941Z,1286
2022-10-19T07:10:31.157Z,1293
2022-10-19T07:11:45.379Z,1269
2022-10-19T07:12:59.695Z,1490
2022-10-19T07:14:13.920Z,1494
2022-10-19T07:15:28.146Z,1509
2022-10-19T07:16:42.452Z,1585
2022-10-19T07:17:55.766Z,1646
2022-10-19T07:19:10.062Z,1729
2022-10-19T07:20:23.357Z,1721
2022-10-19T07:21:37.576Z,1718
2022-10-19T07:22:51.870Z,1609
2022-10-19T07:24:06.114Z,1968
2022-10-19T07:25:20.354Z,1897
2022-10-19T07:26:34.582Z,2030
2022-10-19T07:27:48.800Z,2012
2022-10-19T07:29:03.095Z,2092
2022-10-19T07:30:17.340Z,2106
2022-10-19T07:31:31.579Z,2086
2022-10-19T07:32:45.794Z,2224
2022-10-19T07:34:00.031Z,2232
2022-10-19T07:35:14.325Z,2242
2022-10-19T07:36:28.563Z,2583
2022-10-19T07:37:42.797Z,2686
2022-10-19T07:38:57.010Z,2730
2022-10-19T07:40:11.235Z,2966
2022-10-19T07:41:25.537Z,2635
2022-10-19T07:42:39.792Z,2647
2022-10-19T07:43:54.007Z,2896
2022-10-19T07:45:08.237Z,2961
2022-10-19T07:46:22.461Z,2959
2022-10-19T07:47:36.764Z,2874
2022-10-19T07:48:51.005Z,3258
2022-10-19T07:50:05.230Z,3255
2022-10-19T07:51:19.513Z,3044
2022-10-19T07:52:32.850Z,2892
2022-10-19T07:53:47.135Z,3147
2022-10-19T07:55:00.426Z,3376
2022-10-19T07:56:14.648Z,3561
2022-10-19T07:57:28.957Z,3416
2022-10-19T07:58:43.198Z,3672
2022-10-19T07:59:57.413Z,3435
2022-10-19T08:01:11.651Z,3696
2022-10-19T08:02:25.874Z,3741
2022-10-19T08:03:40.170Z,3945
2022-10-19T08:06:08.647Z,3576
2022-10-19T08:07:22.865Z,4137
2022-10-19T08:08:37.102Z,3808
2022-10-19T08:09:51.393Z,4066
2022-10-19T08:11:05.635Z,5374
2022-10-19T08:12:19.869Z,4656
2022-10-19T08:13:34.093Z,9025
2022-10-19T08:14:48.325Z,10083
2022-10-19T08:16:02.627Z,14108
2022-10-19T08:17:16.861Z,7180
2022-10-19T08:18:31.091Z,6962
2022-10-19T08:19:45.310Z,5354
2022-10-19T08:20:59.542Z,5177
2022-10-19T08:22:13.830Z,11951
2022-10-19T08:23:28.087Z,11452
2022-10-19T08:24:42.312Z,12347
2022-10-19T08:25:56.582Z,15025
2022-10-19T08:27:09.890Z,9726
2022-10-19T08:28:24.130Z,9073
2022-10-19T08:29:38.356Z,8678
2022-10-19T08:30:52.590Z,9720
2022-10-19T08:32:06.812Z,4045
2022-10-19T08:33:21.106Z,20268
2022-10-19T08:34:35.349Z,9945
2022-10-19T08:35:49.583Z,9274
2022-10-19T08:37:03.000Z,16712
2022-10-19T08:38:18.019Z,6431
2022-10-19T08:39:32.329Z,13548
2022-10-19T08:40:46.575Z,8191
2022-10-19T08:42:00.792Z,11314
2022-10-19T08:43:15.021Z,8224
2022-10-19T08:44:29.250Z,6170
2022-10-19T08:45:43.542Z,16671
2022-10-19T08:46:57.784Z,10991
2022-10-19T08:48:12.009Z,8247
2022-10-19T08:49:26.248Z,14243
2022-10-19T08:50:40.471Z,11631
2022-10-19T08:51:54.762Z,19987
2022-10-19T08:53:09.017Z,14679
2022-10-19T08:54:23.233Z,15285
2022-10-19T08:55:37.469Z,12931
2022-10-19T08:56:51.687Z,12179
2022-10-19T08:58:06.041Z,11678
2022-10-19T08:59:20.334Z,15650
2022-10-19T09:00:33.669Z,17353
2022-10-19T09:01:46.961Z,17534
2022-10-19T09:03:01.199Z,16631
2022-10-19T09:04:15.436Z,15725
2022-10-19T09:05:29.649Z,16241
2022-10-19T09:06:43.884Z,15924
2022-10-19T09:07:58.176Z,17494
2022-10-19T09:09:12.420Z,20729
2022-10-19T09:10:26.640Z,19542
2022-10-19T09:11:40.875Z,18661
2022-10-19T09:12:55.099Z,19210
2022-10-19T09:14:09.396Z,18767
2022-10-19T09:15:23.633Z,15850
2022-10-19T09:16:37.866Z,16084
2022-10-19T09:17:52.093Z,15171
2022-10-19T09:19:06.324Z,14801
2022-10-19T09:20:20.624Z,14285
2022-10-19T09:21:34.852Z,13628
2022-10-19T09:22:49.077Z,17003
2022-10-19T09:24:03.313Z,16807
2022-10-19T09:25:17.535Z,14686
2022-10-19T09:26:31.850Z,11689
2022-10-19T09:27:46.086Z,19231
2022-10-19T09:29:00.305Z,8810
2022-10-19T09:30:14.536Z,5854
2022-10-19T09:31:28.753Z,6070
2022-10-19T09:32:43.124Z,5434
2022-10-19T09:33:57.412Z,5765
2022-10-19T09:35:10.747Z,5573
2022-10-19T09:36:25.043Z,5686
2022-10-19T09:37:39.349Z,10619
2022-10-19T09:38:53.626Z,5926
2022-10-19T09:40:06.949Z,3971
2022-10-19T09:41:20.246Z,6215
2022-10-19T09:42:34.485Z,6016
2022-10-19T09:43:48.725Z,6524
2022-10-19T09:45:02.949Z,5233
2022-10-19T09:46:17.162Z,8354
2022-10-19T09:47:31.477Z,8538
2022-10-19T09:48:45.708Z,7894
2022-10-19T09:49:59.932Z,7076
2022-10-19T09:51:14.161Z,7732
2022-10-19T09:52:28.388Z,9394
2022-10-19T09:53:42.687Z,7811
2022-10-19T09:54:56.923Z,5907
2022-10-19T09:56:11.158Z,8817
2022-10-19T09:57:25.376Z,7976
2022-10-19T09:58:39.600Z,7452
2022-10-19T09:59:53.911Z,9879
2022-10-19T10:01:08.150Z,9079
2022-10-19T10:02:22.374Z,8746
2022-10-19T10:03:36.607Z,7241
2022-10-19T10:04:50.832Z,6992
2022-10-19T10:06:05.138Z,6753
2022-10-19T10:07:19.374Z,7520
2022-10-19T10:08:33.592Z,7216
2022-10-19T10:09:47.832Z,8119
2022-10-19T10:11:02.055Z,8173
2022-10-19T10:12:16.413Z,8739
2022-10-19T10:13:30.683Z,8207
2022-10-19T10:14:43.981Z,11158
2022-10-19T10:15:58.204Z,9992
2022-10-19T10:17:12.505Z,13491
2022-10-19T10:18:26.762Z,8025
2022-10-19T10:19:40.000Z,8386
2022-10-19T10:20:55.213Z,8663
2022-10-19T10:22:09.424Z,13687
2022-10-19T10:23:23.732Z,23664
2022-10-19T10:24:37.966Z,9778
2022-10-19T10:25:52.198Z,9324
2022-10-19T10:27:06.422Z,8464
2022-10-19T10:28:20.654Z,8516
2022-10-19T10:29:34.956Z,7092
2022-10-19T10:30:49.190Z,6222
2022-10-19T10:32:03.434Z,7744
2022-10-19T10:33:17.649Z,4503
2022-10-19T10:34:31.875Z,4306
2022-10-19T10:35:46.185Z,7256
2022-10-19T10:37:00.416Z,5422
2022-10-19T10:38:14.650Z,13719
2022-10-19T10:39:28.876Z,18626
2022-10-19T10:40:43.096Z,29660
2022-10-19T10:43:11.647Z,8386
2022-10-19T10:44:25.873Z,8720
2022-10-19T10:45:40.146Z,10820
2022-10-19T10:46:53.480Z,8924
2022-10-19T10:48:07.758Z,9583
2022-10-19T10:49:21.059Z,9513
2022-10-19T10:50:35.277Z,10900
2022-10-19T10:51:49.587Z,8162
2022-10-19T10:53:03.817Z,7845
2022-10-19T10:54:18.059Z,7527
2022-10-19T10:55:32.282Z,7369
2022-10-19T10:56:46.514Z,6073
2022-10-19T10:58:00.800Z,28114
2022-10-19T10:59:15.046Z,18133
2022-10-19T11:00:29.281Z,20982
2022-10-19T11:01:43.491Z,11612
2022-10-19T11:02:57.723Z,75695
2022-10-19T11:04:12.035Z,76651
2022-10-19T11:05:26.274Z,75974
2022-10-19T11:06:40.492Z,75628
2022-10-19T11:07:54.717Z,77881
2022-10-19T11:09:08.944Z,79388
2022-10-19T11:10:23.246Z,79082
2022-10-19T11:11:37.482Z,16541
2022-10-19T11:12:51.709Z,24252
2022-10-19T11:14:05.934Z,14214
2022-10-19T11:15:20.155Z,25432
2022-10-19T11:16:34.460Z,81013
2022-10-19T11:17:48.709Z,75888
2022-10-19T11:19:02.938Z,74620
2022-10-19T11:20:17.227Z,77769
2022-10-19T11:21:30.563Z,79117
2022-10-19T11:22:44.846Z,78044
2022-10-19T11:23:58.142Z,76849
2022-10-19T11:25:12.360Z,73314
2022-10-19T11:26:26.657Z,74890
2022-10-19T11:27:40.914Z,26263
2022-10-19T11:28:55.141Z,26224
2022-10-19T11:30:09.356Z,21682
2022-10-19T11:31:23.587Z,23775
2022-10-19T11:32:37.882Z,23047
2022-10-19T11:33:52.120Z,22462
2022-10-19T11:35:06.360Z,21120
2022-10-19T11:36:20.580Z,23676
2022-10-19T11:37:34.810Z,24712
2022-10-19T11:38:49.109Z,75937
2022-10-19T11:40:03.359Z,21257
2022-10-19T11:41:17.569Z,22294
2022-10-19T11:42:31.803Z,18247
2022-10-19T11:43:46.033Z,16548
2022-10-19T11:45:00.319Z,13562
2022-10-19T11:46:14.565Z,16298
2022-10-19T11:47:28.788Z,21930
2022-10-19T11:48:43.025Z,22069
2022-10-19T11:49:57.243Z,21553
2022-10-19T11:51:11.556Z,21618
2022-10-19T11:52:25.780Z,18861
2022-10-19T11:53:40.017Z,17331
2022-10-19T11:54:54.294Z,16892
2022-10-19T11:56:07.599Z,18185
2022-10-19T11:57:21.838Z,17711
2022-10-19T11:58:36.072Z,20674
2022-10-19T11:59:50.283Z,18339
2022-10-19T12:01:04.514Z,18144
2022-10-19T12:02:18.821Z,17727
2022-10-19T12:03:33.059Z,18174
2022-10-19T12:04:47.280Z,18983
2022-10-19T12:06:01.513Z,17178
2022-10-19T12:07:15.731Z,18101
2022-10-19T12:08:30.045Z,17144
2022-10-19T12:09:44.283Z,15582
2022-10-19T12:10:58.510Z,14996
2022-10-19T12:12:12.724Z,15658
2022-10-19T12:13:26.960Z,13611
2022-10-19T12:14:41.246Z,11093
2022-10-19T12:15:55.492Z,15716
2022-10-19T12:17:09.727Z,12971
2022-10-19T12:18:23.952Z,14776
2022-10-19T12:19:38.184Z,12876
2022-10-19T12:20:52.484Z,16050
2022-10-19T12:22:06.724Z,15287
2022-10-19T12:23:20.937Z,17116
2022-10-19T12:24:35.168Z,15016
2022-10-19T12:25:49.389Z,16646
2022-10-19T12:27:03.766Z,15287
2022-10-19T12:28:18.045Z,14262
2022-10-19T12:29:31.344Z,14669
2022-10-19T12:30:45.556Z,14544
2022-10-19T12:31:59.862Z,14465
2022-10-19T12:33:14.113Z,14635
2022-10-19T12:34:28.338Z,14405
2022-10-19T12:35:42.551Z,8184
2022-10-19T12:36:56.774Z,6296
2022-10-19T12:38:11.076Z,5947
2022-10-19T12:39:25.313Z,6071
2022-10-19T12:40:39.548Z,9582
2022-10-19T12:41:53.774Z,9741
2022-10-19T12:43:08.001Z,9187
2022-10-19T12:44:22.293Z,8431
2022-10-19T12:45:36.541Z,9068
2022-10-19T12:46:50.772Z,9699
2022-10-19T12:48:05.006Z,8439
2022-10-19T12:49:19.224Z,8543
2022-10-19T12:50:33.521Z,9745
2022-10-19T12:51:47.761Z,9903
2022-10-19T12:53:01.993Z,10842
2022-10-19T12:54:16.223Z,11567
2022-10-19T12:55:30.450Z,11670
2022-10-19T12:56:44.744Z,12263
2022-10-19T12:57:58.991Z,10169
2022-10-19T12:59:13.221Z,9241
2022-10-19T13:00:27.508Z,6506
2022-10-19T13:01:40.823Z,5991
2022-10-19T13:02:55.122Z,5650
2022-10-19T13:04:08.403Z,5234
2022-10-19T13:05:22.642Z,5942
2022-10-19T13:06:36.937Z,5480
2022-10-19T13:07:51.172Z,5064
2022-10-19T13:09:05.403Z,4948
2022-10-19T13:10:19.635Z,4751
2022-10-19T13:11:33.864Z,4758
2022-10-19T13:12:48.166Z,4614
2022-10-19T13:14:02.411Z,4412
2022-10-19T13:15:16.622Z,4522
2022-10-19T13:16:30.858Z,4460
2022-10-19T13:17:45.094Z,4807
2022-10-19T13:18:59.375Z,3991
2022-10-19T13:20:13.635Z,3950
2022-10-19T13:21:27.844Z,3997
2022-10-19T13:22:42.074Z,5341
2022-10-19T13:23:56.302Z,5123
2022-10-19T13:25:10.606Z,5900
2022-10-19T13:26:24.843Z,9773
2022-10-19T13:27:39.070Z,4562
2022-10-19T13:28:53.302Z,4684
2022-10-19T13:30:07.534Z,4731
2022-10-19T13:31:21.822Z,3209
2022-10-19T13:32:36.067Z,3606
2022-10-19T13:33:50.304Z,3329
2022-10-19T13:35:04.578Z,3235
2022-10-19T13:36:17.918Z,3238
2022-10-19T13:37:32.190Z,3263
2022-10-19T13:38:45.489Z,3126
2022-10-19T13:39:59.710Z,3233
2022-10-19T13:41:14.024Z,2851
2022-10-19T13:42:28.250Z,2879
2022-10-19T13:43:42.487Z,2926
2022-10-19T13:44:56.710Z,2792
2022-10-19T13:46:10.935Z,2753
2022-10-19T13:47:25.229Z,2701
2022-10-19T13:48:39.474Z,2677
2022-10-19T13:49:53.701Z,2610
2022-10-19T13:51:07.931Z,2542
2022-10-19T13:53:36.468Z,2620
2022-10-19T13:54:50.700Z,2576
2022-10-19T13:56:04.920Z,2595
2022-10-19T13:57:19.155Z,2557
2022-10-19T13:58:33.386Z,2681
2022-10-19T13:59:47.673Z,2601
2022-10-19T14:01:01.927Z,2647
2022-10-19T14:02:16.146Z,2658
2022-10-19T14:03:30.378Z,2590
2022-10-19T14:04:44.599Z,2438
2022-10-19T14:05:58.895Z,2487
2022-10-19T14:07:13.148Z,2555
2022-10-19T14:08:27.373Z,2540
2022-10-19T14:09:41.653Z,2529
2022-10-19T14:10:55.011Z,2555
2022-10-19T14:12:09.292Z,2540
2022-10-19T14:13:22.628Z,2571
2022-10-19T14:14:36.909Z,2622
2022-10-19T14:15:51.211Z,2675
2022-10-19T14:17:05.484Z,2624
2022-10-19T14:18:18.782Z,2530
2022-10-19T14:19:33.000Z,2569
2022-10-19T14:20:47.302Z,2578
2022-10-19T14:22:01.553Z,2551
2022-10-19T14:23:15.776Z,2419
2022-10-19T14:25:44.231Z,2438
2022-10-19T14:26:58.528Z,2412
2022-10-19T14:28:12.774Z,2371
2022-10-19T14:29:27.001Z,2328
2022-10-19T14:30:41.227Z,2304
2022-10-19T14:31:55.448Z,2327
2022-10-19T14:33:09.754Z,2223
2022-10-19T14:34:23.987Z,2184
2022-10-19T14:35:38.206Z,2193
2022-10-19T14:36:52.435Z,2155
2022-10-19T14:38:06.664Z,2140
2022-10-19T14:39:20.961Z,2106
2022-10-19T14:40:35.213Z,2083
2022-10-19T14:41:49.431Z,2072
2022-10-19T14:43:03.656Z,2055
2022-10-19T14:44:17.888Z,2033
2022-10-19T14:45:32.197Z,2050
2022-10-19T14:46:46.424Z,2000
2022-10-19T14:48:00.663Z,1978
2022-10-19T14:49:14.934Z,1960
2022-10-19T14:50:28.240Z,1947
2022-10-19T14:52:56.713Z,1865
2022-10-19T14:54:10.925Z,1825
2022-10-19T14:55:25.166Z,1824
2022-10-19T14:56:39.462Z,1770
2022-10-19T14:57:53.691Z,1721
2022-10-19T14:59:07.918Z,1693
2022-10-19T15:00:22.154Z,1668
2022-10-19T15:01:36.375Z,1647
2022-10-19T15:02:50.671Z,1619
2022-10-19T15:04:04.909Z,1568
2022-10-19T15:05:19.142Z,1538
2022-10-19T15:06:33.379Z,1506
2022-10-19T15:07:47.599Z,1475
2022-10-19T15:09:01.893Z,1466
2022-10-19T15:10:16.137Z,1412
2022-10-19T15:11:30.370Z,1420
2022-10-19T15:12:44.585Z,1364
2022-10-19T15:13:58.823Z,1382
2022-10-19T15:15:13.115Z,1287
2022-10-19T15:16:27.365Z,1235
2022-10-19T15:17:41.582Z,1171
2022-10-19T15:18:55.000Z,1084
2022-10-19T15:20:10.031Z,1000
2022-10-19T15:21:24.399Z,945
2022-10-19T15:22:38.689Z,979
2022-10-19T15:23:52.011Z,912
2022-10-19T15:25:05.305Z,892
2022-10-19T15:26:19.549Z,881
2022-10-19T15:27:33.784Z,839
2022-10-19T15:28:48.003Z,831
2022-10-19T15:30:02.221Z,848
2022-10-19T15:31:16.527Z,804
2022-10-19T15:32:30.770Z,782
2022-10-19T15:33:45.002Z,762
2022-10-19T15:34:59.232Z,731
2022-10-19T15:36:13.459Z,729
2022-10-19T15:38:41.986Z,702
2022-10-19T15:39:56.219Z,683
2022-10-19T15:41:10.440Z,665
2022-10-19T15:42:24.680Z,651
2022-10-19T15:43:38.969Z,632
2022-10-19T15:44:53.221Z,607
2022-10-19T15:46:07.444Z,588
2022-10-19T15:47:21.655Z,568
2022-10-19T15:48:35.901Z,552
2022-10-19T15:49:50.194Z,533
2022-10-19T15:51:04.437Z,518
2022-10-19T15:52:18.651Z,496
2022-10-19T15:53:32.892Z,486
2022-10-19T15:54:47.113Z,477
2022-10-19T15:56:01.464Z,452
2022-10-19T15:57:15.765Z,441
2022-10-19T15:58:29.063Z,424
2022-10-19T15:59:43.275Z,423
2022-10-19T16:00:57.578Z,401
2022-10-19T16:02:11.814Z,382
2022-10-19T16:03:26.053Z,365
2022-10-19T16:04:40.265Z,350
2022-10-19T16:05:54.501Z,339
2022-10-19T16:07:08.804Z,321
2022-10-19T16:08:23.049Z,301
2022-10-19T16:09:37.261Z,291
2022-10-19T16:10:51.501Z,270
2022-10-19T16:12:05.725Z,266
2022-10-19T16:13:20.013Z,250
2022-10-19T16:14:34.253Z,232
2022-10-19T16:15:48.489Z,216
2022-10-19T16:17:02.706Z,200
2022-10-19T16:18:16.941Z,194
2022-10-19T16:19:31.231Z,174
2022-10-19T16:20:45.487Z,158
2022-10-19T16:21:59.715Z,149
2022-10-19T16:23:13.924Z,132
2022-10-19T16:24:28.167Z,120
2022-10-19T16:25:42.462Z,108
2022-10-19T16:26:56.706Z,97
2022-10-19T16:28:10.922Z,89
2022-10-19T16:29:25.219Z,80
2022-10-19T16:30:38.542Z,71
2022-10-19T16:31:52.821Z,62
2022-10-19T16:33:06.119Z,52
2022-10-19T16:34:20.353Z,49
2022-10-19T16:35:34.642Z,40
2022-10-19T16:36:48.888Z,34
2022-10-19T16:38:03.106Z,27
2022-10-19T16:39:17.348Z,19
2022-10-19T16:40:31.564Z,18
2022-10-19T16:41:45.873Z,15
2022-10-19T16:43:00.111Z,13
2022-10-19T16:44:14.346Z,12
2022-10-19T16:45:28.560Z,10
2022-10-19T16:46:42.791Z,6
2022-10-19T16:47:57.098Z,5
2022-10-19T16:49:11.336Z,4
2022-10-19T16:50:25.555Z,3
2022-10-19T16:51:39.785Z,1
2022-10-19T16:54:08.305Z,2
2022-10-19T16:55:22.631Z,0
2022-10-19T16:56:36.861Z,2
2022-10-19T16:57:51.084Z,1
2022-10-19T16:59:05.310Z,1
2022-10-19T17:00:19.612Z,1
2022-10-19T17:01:33.855Z,1
2022-10-19T17:02:48.127Z,0
2022-10-19T17:04:02.527Z,0
2022-10-19T17:05:15.912Z,0
2022-10-19T17:06:30.249Z,0
2022-10-19T17:07:43.587Z,0
2022-10-19T17:08:57.866Z,0
2022-10-19T17:10:12.271Z,0
2022-10-19T17:11:26.613Z,0
2022-10-19T17:12:40.881Z,0
2022-10-19T17:13:55.158Z,0
2022-10-19T17:15:09.578Z,0
2022-10-19T17:16:23.899Z,0
2022-10-19T17:17:38.178Z,0
2022-10-19T17:18:52.460Z,0
2022-10-19T17:20:06.856Z,0
2022-10-19T17:21:21.192Z,0
2022-10-19T17:22:35.476Z,0